Time;durP1;ratioP1;P1;durP2;ratioP2;P2;SDS_P1;SDS_P2;PMS_P1;PMS_P2;Temp;Humidity;BMP_temperature;BMP_pressure;BME280_temperature;BME280_humidity;BME280_pressure;Samples;Min_cycle;Max_cycle;Signal;HPM_P1;HPM_P2
2023/03/01 00:01:01;;;;;;;61.10;15.93;;;-2.30;99.90;;;;;;4978376;28;20065;-70
2023/03/01 00:03:27;;;;;;;68.68;15.32;;;-2.40;99.90;;;;;;4995339;28;20098;-70
2023/03/01 00:05:53;;;;;;;327.27;31.80;;;-2.40;99.90;;;;;;4947288;28;20058;-70
2023/03/01 00:08:18;;;;;;;167.00;19.73;;;-2.50;99.90;;;;;;4994624;28;20058;-70
2023/03/01 00:10:44;;;;;;;89.60;17.40;;;-2.50;99.90;;;;;;4978908;28;20573;-70
2023/03/01 00:13:10;;;;;;;212.07;24.53;;;-2.60;99.90;;;;;;5000115;28;20039;-70
2023/03/01 00:15:40;;;;;;;85.35;13.20;;;-2.60;99.90;;;;;;4963026;28;20133;-70
2023/03/01 00:18:06;;;;;;;69.32;13.30;;;-2.60;99.90;;;;;;4978534;28;20491;-70
2023/03/01 00:20:31;;;;;;;61.00;12.05;;;-2.70;99.90;;;;;;4946544;28;20070;-70
2023/03/01 00:22:57;;;;;;;56.07;12.30;;;-2.80;99.90;;;;;;4984620;28;20039;-70
2023/03/01 00:25:23;;;;;;;23.33;10.40;;;-2.80;99.90;;;;;;4978905;28;20093;-70
2023/03/01 00:27:49;;;;;;;41.93;10.70;;;-2.80;99.90;;;;;;4994992;28;20045;-70
2023/03/01 00:30:15;;;;;;;80.70;14.87;;;-2.90;99.90;;;;;;4962750;28;20125;-70
2023/03/01 00:32:41;;;;;;;156.63;22.00;;;-2.90;99.90;;;;;;4978617;28;20046;-70
2023/03/01 00:35:07;;;;;;;72.33;13.53;;;-2.90;99.90;;;;;;4941398;28;20050;-70
2023/03/01 00:37:32;;;;;;;49.88;12.23;;;-3.00;99.90;;;;;;4991081;28;20125;-70
2023/03/01 00:39:58;;;;;;;36.60;10.27;;;-3.00;99.90;;;;;;4978608;28;20096;-70
2023/03/01 00:42:24;;;;;;;98.80;16.63;;;-3.10;99.90;;;;;;4977147;28;20121;-70
2023/03/01 00:44:49;;;;;;;29.83;10.27;;;-3.10;99.90;;;;;;4994733;28;20122;-70
2023/03/01 00:47:15;;;;;;;76.17;11.87;;;-3.10;99.90;;;;;;5010803;28;20487;-70
2023/03/01 00:49:41;;;;;;;217.77;26.23;;;-3.20;99.90;;;;;;4978871;28;20050;-70
2023/03/01 00:52:07;;;;;;;88.83;14.60;;;-3.20;99.90;;;;;;4993699;28;20097;-70
2023/03/01 00:54:32;;;;;;;141.83;17.33;;;-3.20;99.90;;;;;;5000912;28;20569;-70
2023/03/01 00:56:58;;;;;;;45.10;12.40;;;-3.20;99.90;;;;;;4978576;28;20049;-70
2023/03/01 00:59:24;;;;;;;28.87;11.37;;;-3.20;99.90;;;;;;4994842;28;20124;-70
2023/03/01 01:01:49;;;;;;;17.60;11.40;;;-3.30;99.90;;;;;;4977147;28;20405;-70
2023/03/01 01:04:15;;;;;;;17.03;10.67;;;-3.30;99.90;;;;;;4999443;28;20052;-70
2023/03/01 01:06:46;;;;;;;23.53;11.70;;;-3.30;99.90;;;;;;4975568;28;20050;-70
2023/03/01 01:09:17;;;;;;;14.60;9.90;;;-3.30;99.90;;;;;;4976437;28;20074;-70
2023/03/01 01:11:46;;;;;;;17.35;10.32;;;-3.30;99.90;;;;;;4988737;28;20078;-70
2023/03/01 01:14:12;;;;;;;13.95;9.32;;;-3.40;99.90;;;;;;4962387;28;20055;-70
2023/03/01 01:16:39;;;;;;;16.67;10.43;;;-3.40;99.90;;;;;;4994382;28;20049;-70
2023/03/01 01:19:04;;;;;;;14.60;10.70;;;-3.40;99.90;;;;;;4976257;28;20435;-70
2023/03/01 01:21:30;;;;;;;13.87;8.93;;;-3.50;99.90;;;;;;4990672;28;20045;-70
2023/03/01 01:23:57;;;;;;;16.02;9.85;;;-3.50;99.90;;;;;;4961829;28;20039;-70
2023/03/01 01:26:25;;;;;;;67.68;11.38;;;-3.50;99.90;;;;;;4972337;28;20113;-70
2023/03/01 01:28:52;;;;;;;37.13;10.30;;;-3.60;99.90;;;;;;4974682;28;20050;-70
2023/03/01 01:31:18;;;;;;;37.92;10.32;;;-3.60;99.90;;;;;;4970456;28;20045;-70
2023/03/01 01:33:44;;;;;;;32.92;11.50;;;-3.70;99.90;;;;;;4978196;28;20106;-70
2023/03/01 01:36:13;;;;;;;22.55;9.93;;;-3.70;99.90;;;;;;4995053;28;20031;-70
2023/03/01 01:38:39;;;;;;;30.40;9.90;;;-3.80;99.90;;;;;;4987227;28;20522;-70
2023/03/01 01:41:06;;;;;;;55.60;10.90;;;-3.80;99.90;;;;;;4986798;28;20045;-70
2023/03/01 01:43:38;;;;;;;30.35;10.07;;;-3.80;99.90;;;;;;4993605;28;20100;-70
2023/03/01 01:46:31;;;;;;;26.48;10.02;;;-3.80;99.90;;;;;;5010551;28;20046;-70
2023/03/01 01:49:01;;;;;;;32.47;9.82;;;-3.90;99.90;;;;;;5022332;28;20154;-70
2023/03/01 01:51:40;;;;;;;43.03;11.05;;;-3.90;99.90;;;;;;4991398;28;20116;-70
2023/03/01 01:54:20;;;;;;;32.55;10.55;;;-3.90;99.90;;;;;;4992408;28;20483;-70
2023/03/01 01:56:53;;;;;;;16.10;10.15;;;-3.90;99.90;;;;;;4977534;28;20043;-70
2023/03/01 01:59:19;;;;;;;15.00;8.77;;;-3.90;99.90;;;;;;5007369;28;20038;-70
2023/03/01 02:01:44;;;;;;;30.65;10.77;;;-3.90;99.90;;;;;;4984240;28;20042;-70
2023/03/01 02:04:10;;;;;;;53.30;12.00;;;-3.90;99.90;;;;;;4977178;28;20112;-70
2023/03/01 02:06:51;;;;;;;58.70;11.70;;;-3.80;99.90;;;;;;4974443;28;20065;-70
2023/03/01 02:09:21;;;;;;;93.07;13.40;;;-3.80;99.90;;;;;;4979057;28;20120;-70
2023/03/01 02:11:47;;;;;;;43.65;11.68;;;-3.80;99.90;;;;;;4997164;28;20117;-70
2023/03/01 02:14:15;;;;;;;118.30;14.18;;;-3.70;99.90;;;;;;4980754;28;20486;-70
2023/03/01 02:16:42;;;;;;;120.50;15.50;;;-3.70;99.90;;;;;;4989903;28;20089;-70
2023/03/01 02:19:12;;;;;;;85.63;10.93;;;-3.70;99.90;;;;;;4996720;28;20092;-70
2023/03/01 02:21:46;;;;;;;133.65;16.10;;;-3.60;99.90;;;;;;4996288;28;20250;-70
2023/03/01 02:24:43;;;;;;;139.63;14.88;;;-3.60;99.90;;;;;;5009802;28;20042;-70
2023/03/01 02:27:10;;;;;;;238.10;22.25;;;-3.50;99.90;;;;;;4995757;28;20050;-70
2023/03/01 02:29:36;;;;;;;96.47;12.05;;;-3.50;99.90;;;;;;4981222;28;20049;-70
2023/03/01 02:32:03;;;;;;;296.83;23.77;;;-3.50;99.90;;;;;;4977509;28;20046;-70
2023/03/01 02:34:31;;;;;;;179.23;15.63;;;-3.50;99.90;;;;;;4969023;28;20042;-70
2023/03/01 02:37:00;;;;;;;201.80;17.92;;;-3.50;99.90;;;;;;4996661;28;20042;-70
2023/03/01 02:39:30;;;;;;;93.22;11.82;;;-3.40;99.90;;;;;;4997218;28;20043;-70
2023/03/01 02:41:58;;;;;;;99.00;13.70;;;-3.40;99.90;;;;;;4980229;28;20172;-70
2023/03/01 02:44:24;;;;;;;122.90;12.40;;;-3.40;99.90;;;;;;5004648;28;20129;-70
2023/03/01 02:46:55;;;;;;;126.70;14.07;;;-3.40;99.90;;;;;;4980554;28;20121;-70
2023/03/01 02:49:27;;;;;;;101.97;12.00;;;-3.50;99.90;;;;;;4994305;28;20057;-70
2023/03/01 02:51:59;;;;;;;105.35;11.02;;;-3.50;99.90;;;;;;4980766;28;20568;-70
2023/03/01 02:54:31;;;;;;;159.43;16.45;;;-3.50;99.90;;;;;;5025074;28;20046;-70
2023/03/01 02:56:57;;;;;;;257.60;26.15;;;-3.50;99.90;;;;;;4980479;28;20058;-70
2023/03/01 02:59:28;;;;;;;117.18;12.77;;;-3.50;99.90;;;;;;4980107;28;20092;-70
2023/03/01 03:01:54;;;;;;;110.28;12.65;;;-3.50;99.90;;;;;;5012620;28;20110;-70
2023/03/01 03:04:20;;;;;;;51.07;9.43;;;-3.50;99.90;;;;;;5012811;28;20077;-70
2023/03/01 03:06:50;;;;;;;73.47;11.65;;;-3.50;99.90;;;;;;4977488;28;20057;-70
2023/03/01 03:09:18;;;;;;;100.07;11.63;;;-3.50;99.90;;;;;;4996845;28;20073;-70
2023/03/01 03:11:44;;;;;;;142.45;12.82;;;-3.50;99.90;;;;;;4979871;28;20054;-70
2023/03/01 03:14:12;;;;;;;109.87;12.87;;;-3.40;99.90;;;;;;4960414;28;20051;-70
2023/03/01 03:16:58;;;;;;;84.03;9.88;;;-3.40;99.90;;;;;;4970345;28;20096;-70
2023/03/01 03:19:23;;;;;;;91.00;10.82;;;-3.50;99.90;;;;;;4979147;28;20562;-70
2023/03/01 03:21:50;;;;;;;96.23;10.80;;;-3.40;99.90;;;;;;4979852;28;20144;-70
2023/03/01 03:24:17;;;;;;;201.20;17.88;;;-3.40;99.90;;;;;;4989764;28;20668;-70
2023/03/01 03:26:43;;;;;;;97.95;10.07;;;-3.40;99.90;;;;;;4996002;28;20045;-70
2023/03/01 03:29:08;;;;;;;90.10;10.53;;;-3.40;99.90;;;;;;4961603;28;20054;-70
2023/03/01 03:31:34;;;;;;;149.33;15.43;;;-3.40;99.90;;;;;;4980063;28;20046;-70
2023/03/01 03:34:00;;;;;;;109.13;11.87;;;-3.30;99.90;;;;;;4992851;28;20161;-70
2023/03/01 03:36:25;;;;;;;167.00;16.53;;;-3.30;99.90;;;;;;4963581;28;20117;-70
2023/03/01 03:38:51;;;;;;;52.83;9.57;;;-3.40;99.90;;;;;;4995308;28;20473;-70
2023/03/01 03:41:17;;;;;;;85.77;11.77;;;-3.30;99.90;;;;;;4996124;28;20038;-70
2023/03/01 03:43:43;;;;;;;42.90;8.32;;;-3.30;99.90;;;;;;4995930;28;20069;-70
2023/03/01 03:46:11;;;;;;;37.15;8.85;;;-3.40;99.90;;;;;;4995873;28;20061;-70
2023/03/01 03:48:43;;;;;;;97.82;13.90;;;-3.40;99.90;;;;;;4979157;28;20073;-70
2023/03/01 03:51:15;;;;;;;55.90;9.55;;;-3.40;99.90;;;;;;4978932;28;20050;-70
2023/03/01 03:53:41;;;;;;;46.70;10.48;;;-3.50;99.90;;;;;;4995055;28;20786;-69
2023/03/01 03:56:10;;;;;;;19.40;7.93;;;-3.50;99.90;;;;;;4995740;28;20042;-69
2023/03/01 03:58:36;;;;;;;84.78;13.70;;;-3.50;99.90;;;;;;5011474;28;20045;-69
2023/03/01 04:01:02;;;;;;;23.57;8.50;;;-3.50;99.90;;;;;;4979145;28;20043;-69
2023/03/01 04:03:30;;;;;;;29.85;8.02;;;-3.60;99.90;;;;;;4979541;28;20038;-70
2023/03/01 04:05:58;;;;;;;45.17;9.48;;;-3.60;99.90;;;;;;4995188;28;20050;-69
2023/03/01 04:08:24;;;;;;;73.35;10.98;;;-3.60;99.90;;;;;;5021586;28;20053;-69
2023/03/01 04:10:52;;;;;;;36.07;7.90;;;-3.60;99.90;;;;;;5011418;28;20042;-71
2023/03/01 04:13:24;;;;;;;20.15;8.32;;;-3.60;99.90;;;;;;4985285;28;20097;-72
2023/03/01 04:15:54;;;;;;;10.45;8.07;;;-3.60;99.90;;;;;;4994997;28;20061;-72
2023/03/01 04:18:22;;;;;;;38.65;9.07;;;-3.60;99.90;;;;;;4986812;28;20380;-72
2023/03/01 04:20:49;;;;;;;11.88;7.68;;;-3.50;99.90;;;;;;4979069;28;20101;-72
2023/03/01 04:23:20;;;;;;;14.27;8.38;;;-3.50;99.90;;;;;;4994822;28;20125;-72
2023/03/01 04:25:54;;;;;;;34.92;9.20;;;-3.50;99.90;;;;;;4978927;28;20439;-72
2023/03/01 04:28:28;;;;;;;16.73;8.93;;;-3.40;99.90;;;;;;4979030;28;20153;-72
2023/03/01 04:30:57;;;;;;;49.83;10.10;;;-3.40;99.90;;;;;;4975619;28;20043;-72
2023/03/01 04:33:23;;;;;;;24.10;8.48;;;-3.40;99.90;;;;;;4978230;28;20042;-72
2023/03/01 04:35:50;;;;;;;60.28;10.30;;;-3.40;99.90;;;;;;4994588;28;20054;-72
2023/03/01 04:38:17;;;;;;;49.03;9.63;;;-3.40;99.90;;;;;;4994403;28;20042;-72
2023/03/01 04:40:43;;;;;;;147.35;14.32;;;-3.40;99.90;;;;;;4992184;28;20037;-72
2023/03/01 04:43:10;;;;;;;97.03;11.10;;;-3.40;99.90;;;;;;4990739;28;20042;-72
2023/03/01 04:45:36;;;;;;;36.20;8.35;;;-3.40;99.90;;;;;;4994872;28;20052;-72
2023/03/01 04:48:03;;;;;;;51.80;9.57;;;-3.40;99.90;;;;;;4977807;28;20050;-70
2023/03/01 04:50:29;;;;;;;99.82;11.38;;;-3.30;99.90;;;;;;4994439;28;20503;-70
2023/03/01 04:52:58;;;;;;;145.15;12.40;;;-3.30;99.90;;;;;;4994219;28;20054;-70
2023/03/01 04:55:25;;;;;;;167.02;14.52;;;-3.30;99.90;;;;;;5010400;28;20038;-69
2023/03/01 04:57:52;;;;;;;95.35;11.30;;;-3.30;99.90;;;;;;4977534;28;20206;-69
2023/03/01 05:00:21;;;;;;;98.85;9.85;;;-3.30;99.90;;;;;;4977812;28;20042;-70
2023/03/01 05:02:55;;;;;;;99.55;10.35;;;-3.30;99.90;;;;;;4990442;28;20039;-70
2023/03/01 05:05:32;;;;;;;114.40;10.73;;;-3.30;99.90;;;;;;4986188;28;20457;-69
2023/03/01 05:08:00;;;;;;;129.18;12.55;;;-3.30;99.90;;;;;;4993943;28;20054;-71
2023/03/01 05:10:29;;;;;;;96.70;11.30;;;-3.20;99.90;;;;;;4993945;28;20046;-71
2023/03/01 05:12:57;;;;;;;94.13;11.02;;;-3.20;99.90;;;;;;4977276;28;20494;-71
2023/03/01 05:15:26;;;;;;;146.70;15.18;;;-3.30;99.90;;;;;;4978368;28;20068;-71
2023/03/01 05:17:54;;;;;;;59.35;9.20;;;-3.30;99.90;;;;;;4993584;28;20042;-71
2023/03/01 05:20:23;;;;;;;133.52;13.75;;;-3.30;99.90;;;;;;4978168;28;20050;-71
2023/03/01 05:22:51;;;;;;;21.55;7.88;;;-3.30;99.90;;;;;;4976910;28;20078;-71
2023/03/01 05:25:17;;;;;;;127.32;11.43;;;-3.30;99.90;;;;;;5015428;28;20096;-71
2023/03/01 05:27:44;;;;;;;180.53;16.47;;;-3.30;99.90;;;;;;4993478;28;20503;-71
2023/03/01 05:30:14;;;;;;;160.95;16.58;;;-3.30;99.90;;;;;;4960415;28;20039;-70
2023/03/01 05:32:45;;;;;;;104.68;9.65;;;-3.40;99.90;;;;;;4971035;28;20042;-71
2023/03/01 05:35:15;;;;;;;68.97;8.85;;;-3.40;99.90;;;;;;4993711;28;20045;-71
2023/03/01 05:37:47;;;;;;;96.47;9.93;;;-3.40;99.90;;;;;;4993646;28;20503;-70
2023/03/01 05:40:15;;;;;;;193.77;18.13;;;-3.40;99.90;;;;;;4997016;28;20042;-70
2023/03/01 05:42:48;;;;;;;219.73;17.50;;;-3.40;99.90;;;;;;4981246;28;20395;-70
2023/03/01 05:45:15;;;;;;;93.93;10.80;;;-3.40;99.90;;;;;;4977689;28;20043;-70
2023/03/01 05:47:43;;;;;;;79.85;9.10;;;-3.50;99.90;;;;;;4990596;28;20038;-70
2023/03/01 05:50:18;;;;;;;102.57;9.10;;;-3.50;99.90;;;;;;4981480;28;20046;-70
2023/03/01 05:52:48;;;;;;;;;;;-3.50;99.90;;;;;;4980549;28;20046;-70
2023/03/01 05:55:16;;;;;;;94.00;10.52;;;-3.60;99.90;;;;;;4997090;28;20358;-70
2023/03/01 05:57:42;;;;;;;227.18;20.90;;;-3.60;99.90;;;;;;4980687;28;20034;-70
2023/03/01 06:00:11;;;;;;;93.53;9.80;;;-3.60;99.90;;;;;;4965473;28;20108;-70
2023/03/01 06:02:37;;;;;;;29.10;7.18;;;-3.70;99.90;;;;;;4975404;28;20035;-70
2023/03/01 06:05:05;;;;;;;56.28;8.95;;;-3.70;99.90;;;;;;5013376;28;20483;-70
2023/03/01 06:07:31;;;;;;;45.13;8.13;;;-3.80;99.90;;;;;;4997361;28;20054;-70
2023/03/01 06:09:57;;;;;;;58.85;8.32;;;-3.80;99.90;;;;;;5013140;28;20070;-70
2023/03/01 06:12:23;;;;;;;43.57;8.00;;;-3.80;99.90;;;;;;4963735;28;20082;-70
2023/03/01 06:14:49;;;;;;;39.97;8.87;;;-3.80;99.90;;;;;;4948006;28;20062;-70
2023/03/01 06:17:14;;;;;;;30.40;8.03;;;-3.80;99.90;;;;;;4996310;28;20104;-70
2023/03/01 06:19:40;;;;;;;19.20;7.47;;;-3.90;99.90;;;;;;4990351;28;20039;-70
2023/03/01 06:22:06;;;;;;;39.57;8.23;;;-3.80;99.90;;;;;;4996614;28;20478;-70
2023/03/01 06:24:31;;;;;;;78.70;11.20;;;-3.90;99.90;;;;;;4987071;28;20128;-70
2023/03/01 06:26:57;;;;;;;54.17;9.33;;;-3.90;99.90;;;;;;4961577;28;20046;-70
2023/03/01 06:29:23;;;;;;;40.23;9.20;;;-3.90;99.90;;;;;;4980528;28;20487;-70
2023/03/01 06:31:49;;;;;;;65.53;9.77;;;-3.90;99.90;;;;;;4996417;28;20054;-70
2023/03/01 06:34:15;;;;;;;31.73;8.80;;;-3.90;99.90;;;;;;4996373;28;20048;-70
2023/03/01 06:36:40;;;;;;;13.93;7.60;;;-4.00;99.90;;;;;;4975262;28;20289;-70
2023/03/01 06:39:06;;;;;;;15.27;7.40;;;-4.00;99.90;;;;;;4976933;28;20039;-70
2023/03/01 06:41:33;;;;;;;65.40;10.27;;;-3.90;99.90;;;;;;4994486;28;20126;-70
2023/03/01 06:43:59;;;;;;;44.42;8.25;;;-3.90;99.90;;;;;;4995792;28;20058;-70
2023/03/01 06:46:28;;;;;;;97.30;10.68;;;-3.90;99.90;;;;;;4996399;28;20042;-70
2023/03/01 06:48:54;;;;;;;54.47;9.03;;;-3.80;99.90;;;;;;4984474;28;20491;-71
2023/03/01 06:51:19;;;;;;;42.70;8.60;;;-3.80;99.90;;;;;;4974503;28;20046;-71
2023/03/01 06:53:46;;;;;;;39.53;8.50;;;-3.80;99.90;;;;;;5003447;28;20038;-70
2023/03/01 06:56:12;;;;;;;140.15;14.20;;;-3.80;99.90;;;;;;4976544;28;20047;-71
2023/03/01 06:58:37;;;;;;;56.37;9.00;;;-3.80;99.90;;;;;;4992649;28;20035;-71
2023/03/01 07:01:09;;;;;;;33.83;8.23;;;-3.70;99.90;;;;;;4991815;28;20034;-70
2023/03/01 07:03:35;;;;;;;84.53;10.23;;;-3.70;99.90;;;;;;5012102;28;20506;-70
2023/03/01 07:06:01;;;;;;;58.90;9.03;;;-3.70;99.90;;;;;;4979679;28;20129;-70
2023/03/01 07:08:27;;;;;;;20.37;8.73;;;-3.70;99.90;;;;;;4995968;28;20046;-70
2023/03/01 07:10:59;;;;;;;22.13;8.47;;;-3.60;99.90;;;;;;4980514;28;20439;-70
2023/03/01 07:13:25;;;;;;;37.45;8.43;;;-3.50;99.90;;;;;;4995315;28;20038;-70
2023/03/01 07:15:51;;;;;;;12.20;7.50;;;-3.50;99.90;;;;;;4995652;28;20081;-70
2023/03/01 07:18:22;;;;;;;25.80;7.30;;;-3.40;99.90;;;;;;4979929;28;20470;-70
2023/03/01 07:20:48;;;;;;;20.93;9.23;;;-3.40;99.90;;;;;;4976161;28;20046;-70
2023/03/01 07:23:14;;;;;;;109.10;10.80;;;-3.20;99.90;;;;;;4976921;28;20061;-70
2023/03/01 07:25:39;;;;;;;55.40;8.83;;;-3.20;99.90;;;;;;4976741;28;20039;-70
2023/03/01 07:28:05;;;;;;;77.07;10.63;;;-3.10;99.90;;;;;;4963034;28;20092;-70
2023/03/01 07:30:31;;;;;;;78.63;10.70;;;-3.10;99.90;;;;;;4989200;28;20129;-70
2023/03/01 07:32:58;;;;;;;76.40;11.43;;;-3.00;99.90;;;;;;4979310;28;20403;-70
2023/03/01 07:35:26;;;;;;;93.65;12.45;;;-2.90;99.90;;;;;;4980646;28;20053;-72
2023/03/01 07:37:52;;;;;;;140.00;14.85;;;-2.90;99.90;;;;;;4980539;28;20498;-71
2023/03/01 07:40:21;;;;;;;125.75;14.40;;;-2.80;99.90;;;;;;4990281;28;20061;-72
2023/03/01 07:42:46;;;;;;;45.13;10.73;;;-2.70;99.90;;;;;;5007603;28;20450;-72
2023/03/01 07:45:13;;;;;;;158.97;17.50;;;-2.60;99.90;;;;;;4961437;28;20043;-72
2023/03/01 07:47:39;;;;;;;47.55;11.18;;;-2.50;99.90;;;;;;4961286;28;20049;-71
2023/03/01 07:50:05;;;;;;;76.32;12.45;;;-2.40;99.90;;;;;;4980990;28;20049;-72
2023/03/01 07:52:31;;;;;;;50.80;11.77;;;-2.30;99.90;;;;;;4981103;28;20038;-72
2023/03/01 07:54:57;;;;;;;64.20;11.80;;;-2.20;99.90;;;;;;4962931;28;20050;-72
2023/03/01 07:57:23;;;;;;;80.87;12.63;;;-2.10;99.90;;;;;;5013139;28;20193;-72
2023/03/01 07:59:49;;;;;;;15.25;10.25;;;-2.00;99.90;;;;;;5008456;28;20169;-72
2023/03/01 08:02:15;;;;;;;39.00;12.77;;;-1.90;99.90;;;;;;4970847;28;20081;-72
2023/03/01 08:04:42;;;;;;;55.23;12.93;;;-1.70;99.90;;;;;;4995395;28;20109;-71
2023/03/01 08:07:07;;;;;;;58.70;14.82;;;-1.60;99.90;;;;;;4944301;28;20105;-72
2023/03/01 08:09:37;;;;;;;66.97;14.47;;;-1.50;99.90;;;;;;4980409;28;20050;-71
2023/03/01 08:12:04;;;;;;;56.03;14.18;;;-1.50;99.90;;;;;;4996262;28;20465;-71
2023/03/01 08:14:31;;;;;;;22.98;12.13;;;-1.50;99.90;;;;;;4960584;28;20058;-72
2023/03/01 08:16:57;;;;;;;18.80;11.95;;;-1.40;99.90;;;;;;4957605;28;20038;-72
2023/03/01 08:19:23;;;;;;;21.83;12.67;;;-1.30;99.90;;;;;;4996354;28;20047;-72
2023/03/01 08:21:49;;;;;;;20.48;12.48;;;-1.20;99.90;;;;;;4980018;28;20554;-72
2023/03/01 08:24:15;;;;;;;20.43;12.60;;;-1.10;99.90;;;;;;4993200;28;20077;-72
2023/03/01 08:26:41;;;;;;;22.87;13.63;;;-1.10;99.90;;;;;;4979807;28;20050;-72
2023/03/01 08:29:09;;;;;;;22.38;12.50;;;-1.00;99.90;;;;;;5007633;28;20045;-72
2023/03/01 08:31:38;;;;;;;19.10;12.27;;;-0.90;99.90;;;;;;4976757;28;20042;-71
2023/03/01 08:34:09;;;;;;;20.77;13.02;;;-0.90;99.90;;;;;;4995818;28;20054;-72
2023/03/01 08:36:38;;;;;;;18.85;12.15;;;-0.80;99.90;;;;;;4977650;28;20080;-72
2023/03/01 08:39:05;;;;;;;16.15;12.32;;;-0.70;99.90;;;;;;4995317;28;20088;-72
2023/03/01 08:41:31;;;;;;;21.40;12.88;;;-0.60;99.90;;;;;;4964757;28;20052;-72
2023/03/01 08:43:59;;;;;;;19.60;12.80;;;-0.60;99.90;;;;;;5002472;28;20050;-72
2023/03/01 08:46:37;;;;;;;17.63;12.15;;;-0.50;99.90;;;;;;4978382;28;20129;-72
2023/03/01 08:49:08;;;;;;;18.52;12.35;;;-0.50;99.90;;;;;;4996404;28;20042;-72
2023/03/01 08:51:36;;;;;;;19.35;12.50;;;-0.40;99.90;;;;;;5001191;28;20072;-71
2023/03/01 08:54:17;;;;;;;20.60;13.55;;;-0.40;99.90;;;;;;4978173;28;20046;-72
2023/03/01 08:56:44;;;;;;;20.52;13.38;;;-0.40;99.90;;;;;;4995111;28;20046;-72
2023/03/01 08:59:11;;;;;;;19.58;13.05;;;-0.30;99.90;;;;;;4996115;28;20042;-72
2023/03/01 09:01:37;;;;;;;19.25;13.00;;;-0.30;99.90;;;;;;4995055;28;20038;-71
2023/03/01 09:04:04;;;;;;;19.88;13.00;;;-0.20;99.90;;;;;;4987002;28;20505;-72
2023/03/01 09:06:34;;;;;;;16.67;12.07;;;0.00;99.90;;;;;;4958032;28;20046;-72
2023/03/01 09:09:01;;;;;;;19.23;12.27;;;0.10;99.90;;;;;;4995441;28;20054;-72
2023/03/01 09:11:28;;;;;;;16.13;10.90;;;0.20;99.90;;;;;;4982739;28;20134;-72
2023/03/01 09:14:00;;;;;;;14.70;10.65;;;0.40;99.90;;;;;;4978811;28;20093;-72
2023/03/01 09:16:26;;;;;;;15.00;10.93;;;0.50;99.90;;;;;;4998333;28;20117;-72
2023/03/01 09:18:58;;;;;;;15.68;11.15;;;0.60;99.90;;;;;;5002387;28;20514;-72
2023/03/01 09:21:25;;;;;;;15.80;10.63;;;0.70;99.90;;;;;;5005510;28;20050;-72
2023/03/01 09:23:51;;;;;;;16.70;11.93;;;0.70;99.90;;;;;;4977140;28;20046;-72
2023/03/01 09:26:23;;;;;;;15.52;11.20;;;0.80;99.90;;;;;;5007817;28;20674;-71
2023/03/01 09:28:52;;;;;;;16.65;11.18;;;1.00;99.90;;;;;;4999720;28;20126;-72
2023/03/01 09:31:20;;;;;;;16.50;11.07;;;1.10;99.90;;;;;;4983152;28;20462;-71
2023/03/01 09:33:52;;;;;;;16.52;11.25;;;1.30;99.90;;;;;;4999208;28;20120;-72
2023/03/01 09:36:23;;;;;;;16.77;11.48;;;1.40;99.90;;;;;;4977388;28;20042;-71
2023/03/01 09:38:51;;;;;;;14.82;10.20;;;1.60;99.90;;;;;;4996392;28;20045;-72
2023/03/01 09:41:41;;;;;;;14.40;10.38;;;1.60;99.90;;;;;;4980828;28;20066;-71
2023/03/01 09:44:44;;;;;;;16.67;10.88;;;1.70;99.90;;;;;;4976358;28;20049;-71
2023/03/01 09:47:18;;;;;;;16.40;11.40;;;1.90;99.90;;;;;;4980258;28;20043;-72
2023/03/01 09:49:48;;;;;;;19.63;11.65;;;2.00;99.90;;;;;;4993201;28;20048;-72
2023/03/01 09:52:30;;;;;;;14.75;10.55;;;2.10;99.90;;;;;;4996160;28;20061;-72
2023/03/01 09:55:13;;;;;;;16.00;10.77;;;2.30;99.90;;;;;;4998013;28;20045;-73
2023/03/01 09:58:02;;;;;;;17.77;11.85;;;2.50;99.90;;;;;;4994298;28;20050;-71
2023/03/01 10:00:42;;;;;;;17.33;11.48;;;2.60;99.90;;;;;;5012467;28;20053;-72
2023/03/01 10:03:22;;;;;;;17.88;12.70;;;2.80;99.90;;;;;;5000867;28;20102;-72
2023/03/01 10:06:08;;;;;;;16.85;11.32;;;2.90;99.90;;;;;;5014681;28;20057;-72
2023/03/01 10:08:49;;;;;;;18.73;11.45;;;3.00;99.90;;;;;;4994202;28;20035;-72
2023/03/01 10:11:40;;;;;;;17.55;11.25;;;3.10;99.90;;;;;;4979394;28;20049;-72
2023/03/01 10:14:32;;;;;;;14.60;11.00;;;3.30;99.90;;;;;;4998671;28;20047;-71
2023/03/01 10:17:19;;;;;;;17.85;10.98;;;3.40;99.90;;;;;;4976703;28;20055;-72
2023/03/01 10:19:46;;;;;;;13.90;10.82;;;3.50;99.90;;;;;;4979785;28;20050;-72
2023/03/01 10:22:21;;;;;;;15.90;11.20;;;3.60;99.90;;;;;;4980529;28;20399;-72
2023/03/01 10:24:49;;;;;;;15.35;10.32;;;3.70;99.90;;;;;;4977837;28;20039;-71
2023/03/01 10:27:25;;;;;;;16.73;11.38;;;3.80;99.90;;;;;;4975776;28;20888;-71
2023/03/01 10:30:06;;;;;;;15.25;10.35;;;3.90;99.90;;;;;;5027988;28;20049;-71
2023/03/01 10:32:32;;;;;;;15.68;11.20;;;4.10;99.90;;;;;;4978503;28;20046;-71
2023/03/01 10:34:58;;;;;;;15.82;11.40;;;4.20;99.90;;;;;;4998578;28;20046;-71
2023/03/01 10:37:27;;;;;;;17.27;11.43;;;4.30;99.90;;;;;;4996974;28;20577;-71
2023/03/01 10:40:12;;;;;;;18.55;11.45;;;4.40;99.90;;;;;;4977530;28;20043;-71
2023/03/01 10:42:45;;;;;;;18.17;11.40;;;4.50;99.90;;;;;;4981791;28;20065;-71
2023/03/01 10:45:36;;;;;;;15.18;12.00;;;4.50;99.90;;;;;;4993477;28;20045;-71
2023/03/01 10:48:15;;;;;;;19.75;11.98;;;4.60;99.90;;;;;;4979733;28;20469;-71
2023/03/01 10:50:46;;;;;;;17.75;12.25;;;4.70;99.90;;;;;;4970528;28;20042;-71
2023/03/01 10:53:32;;;;;;;18.42;13.40;;;4.70;99.90;;;;;;4980858;28;20589;-71
2023/03/01 10:56:13;;;;;;;18.02;13.50;;;4.90;99.90;;;;;;4963509;28;20054;-71
2023/03/01 10:58:58;;;;;;;20.05;13.70;;;5.00;99.90;;;;;;4996422;28;20057;-71
2023/03/01 11:01:27;;;;;;;21.17;13.50;;;5.10;99.90;;;;;;4996456;28;20038;-71
2023/03/01 11:04:10;;;;;;;20.85;14.60;;;5.20;99.90;;;;;;4980771;28;20046;-71
2023/03/01 11:06:39;;;;;;;20.38;14.23;;;5.40;99.90;;;;;;4996533;28;20074;-71
2023/03/01 11:09:22;;;;;;;20.33;13.68;;;5.40;99.90;;;;;;4998305;28;20042;-71
2023/03/01 11:12:00;;;;;;;20.42;14.35;;;5.60;99.90;;;;;;5024773;28;20056;-71
2023/03/01 11:14:31;;;;;;;20.00;14.00;;;5.70;99.90;;;;;;4992391;28;20088;-71
2023/03/01 11:17:03;;;;;;;22.10;14.50;;;5.70;99.90;;;;;;4996563;28;20419;-71
2023/03/01 11:19:29;;;;;;;20.85;14.32;;;5.80;99.90;;;;;;4996378;28;20073;-71
2023/03/01 11:22:12;;;;;;;20.03;14.70;;;5.90;99.90;;;;;;5009777;28;20467;-71
2023/03/01 11:24:45;;;;;;;19.38;14.63;;;6.00;99.90;;;;;;4991396;28;20078;-71
2023/03/01 11:27:28;;;;;;;21.92;15.10;;;6.10;99.90;;;;;;5010717;28;20042;-71
2023/03/01 11:30:03;;;;;;;19.13;14.63;;;6.10;99.90;;;;;;4997125;28;20108;-72
2023/03/01 11:33:07;;;;;;;20.63;14.77;;;6.30;99.90;;;;;;4998883;28;20117;-72
2023/03/01 11:35:42;;;;;;;18.98;14.00;;;6.40;99.90;;;;;;4979145;28;20051;-71
2023/03/01 11:38:26;;;;;;;20.85;16.05;;;6.40;99.90;;;;;;4985081;28;20046;-72
2023/03/01 11:40:58;;;;;;;22.35;15.13;;;6.60;99.90;;;;;;4991746;28;20066;-72
2023/03/01 11:44:01;;;;;;;18.52;14.40;;;6.70;99.90;;;;;;4999589;28;20050;-71
2023/03/01 11:46:36;;;;;;;18.00;14.57;;;6.80;99.90;;;;;;4981750;28;20042;-71
2023/03/01 11:49:24;;;;;;;20.73;15.20;;;6.90;99.90;;;;;;4997972;28;20042;-72
2023/03/01 11:51:53;;;;;;;18.25;14.88;;;7.00;99.90;;;;;;4997554;28;20046;-71
2023/03/01 11:54:27;;;;;;;19.65;12.80;;;7.00;99.90;;;;;;4999243;28;20054;-72
2023/03/01 12:06:57;;;;;;;20.33;13.75;;;7.30;99.90;;;;;;5824101;22;20057;-70
2023/03/01 12:09:48;;;;;;;17.90;12.15;;;7.30;99.90;;;;;;4979271;28;20062;-72
2023/03/01 12:12:40;;;;;;;22.23;13.55;;;7.30;99.90;;;;;;4971100;28;20050;-72
2023/03/01 12:15:24;;;;;;;20.70;14.07;;;7.40;99.90;;;;;;4975506;28;20093;-72
2023/03/01 12:18:08;;;;;;;17.83;13.18;;;7.40;99.90;;;;;;4976898;28;20502;-72
2023/03/01 12:20:49;;;;;;;15.88;11.73;;;7.40;99.90;;;;;;4989613;28;20042;-71
2023/03/01 12:23:53;;;;;;;16.55;11.75;;;7.40;99.90;;;;;;4973572;28;20046;-72
2023/03/01 12:26:56;;;;;;;16.70;12.38;;;7.50;99.90;;;;;;4929737;29;20071;-72
2023/03/01 12:33:38;;;;;;;17.27;11.85;;;7.50;99.90;;;;;;4974659;28;20046;-71
2023/03/01 12:36:18;;;;;;;19.50;13.18;;;7.60;99.90;;;;;;4967579;28;20428;-71
2023/03/01 12:39:08;;;;;;;18.98;12.65;;;7.70;99.90;;;;;;4986667;28;20108;-72
2023/03/01 12:42:03;;;;;;;17.73;12.52;;;7.70;99.90;;;;;;4983578;28;20046;-71
2023/03/01 12:44:38;;;;;;;22.60;12.93;;;7.70;97.90;;;;;;4985799;28;20042;-72
2023/03/01 12:47:26;;;;;;;20.77;12.63;;;7.70;97.90;;;;;;4982937;28;20050;-71
2023/03/01 12:50:01;;;;;;;17.75;11.85;;;7.70;97.50;;;;;;4976297;28;20101;-72
2023/03/01 12:52:44;;;;;;;16.10;11.95;;;7.70;98.60;;;;;;4988672;28;20046;-71
2023/03/01 12:55:34;;;;;;;17.75;12.50;;;7.70;98.30;;;;;;4966891;28;20047;-71
2023/03/01 12:58:07;;;;;;;16.23;11.52;;;7.70;96.80;;;;;;4977555;28;20042;-72
2023/03/01 13:00:45;;;;;;;16.80;12.50;;;7.80;99.00;;;;;;4984552;28;20053;-72
2023/03/01 13:03:23;;;;;;;16.50;11.77;;;7.80;98.30;;;;;;4971316;28;20088;-71